Time;durP1;ratioP1;P1;durP2;ratioP2;P2;SDS_P1;SDS_P2;PMS_P1;PMS_P2;Temp;Humidity;BMP_temperature;BMP_pressure;BME280_temperature;BME280_humidity;BME280_pressure;Samples;Min_cycle;Max_cycle;Signal;HPM_P1;HPM_P2
2021/09/20 00:01:46;;;;;;;2.50;0.60;;;;;;;12.54;56.92;100176.89;117308;1185;21845;-54
2021/09/20 00:04:15;;;;;;;3.20;0.70;;;;;;;12.51;56.92;100177.84;117180;1185;23564;-54
2021/09/20 00:06:43;;;;;;;1.00;0.70;;;;;;;12.48;57.12;100178.41;117087;1186;21854;-54
2021/09/20 00:09:12;;;;;;;2.40;0.70;;;;;;;12.45;57.10;100179.02;117373;1186;21845;-54
2021/09/20 00:11:40;;;;;;;1.20;0.60;;;;;;;12.39;56.94;100186.88;117297;1185;23557;-54
2021/09/20 00:14:11;;;;;;;1.60;0.80;;;;;;;12.35;56.96;100194.02;117143;1186;23555;-55
2021/09/20 00:16:40;;;;;;;1.40;1.00;;;;;;;12.32;56.98;100199.89;117294;1185;23545;-54
2021/09/20 00:19:28;;;;;;;2.60;0.90;;;;;;;12.31;56.85;100206.09;117103;1190;21854;-54
2021/09/20 00:21:56;;;;;;;1.20;0.70;;;;;;;12.28;56.94;100203.52;117251;1185;21860;-54
2021/09/20 00:24:44;;;;;;;1.90;0.70;;;;;;;12.25;56.98;100196.89;117279;1186;21978;-54
2021/09/20 00:27:15;;;;;;;1.50;0.90;;;;;;;12.22;57.00;100193.08;117329;1186;23554;-54
2021/09/20 00:29:45;;;;;;;1.70;0.70;;;;;;;12.20;57.05;100193.11;117296;1186;23870;-54
2021/09/20 00:32:33;;;;;;;2.00;1.00;;;;;;;12.18;56.93;100194.56;117263;1186;22982;-54
2021/09/20 00:35:02;;;;;;;1.30;1.10;;;;;;;12.14;56.91;100194.48;117269;1188;23582;-55
2021/09/20 00:37:50;;;;;;;1.60;1.00;;;;;;;12.07;56.83;100192.17;117259;1189;22903;-54
2021/09/20 00:40:18;;;;;;;1.90;1.20;;;;;;;12.02;56.90;100196.52;117266;1183;23581;-54
2021/09/20 00:42:48;;;;;;;1.90;0.80;;;;;;;12.00;57.06;100200.06;117306;1186;23542;-55
2021/09/20 00:45:18;;;;;;;1.30;1.00;;;;;;;11.99;57.00;100203.04;117242;1186;22903;-54
2021/09/20 00:47:46;;;;;;;1.60;0.90;;;;;;;11.98;57.20;100203.05;117388;1185;21857;-54
2021/09/20 00:50:16;;;;;;;1.60;1.00;;;;;;;11.95;57.10;100205.23;117305;1179;23574;-54
2021/09/20 00:53:04;;;;;;;1.50;1.00;;;;;;;11.99;57.12;100196.02;117248;1180;22937;-54
2021/09/20 00:55:32;;;;;;;1.60;0.90;;;;;;;12.05;57.23;100192.21;117399;1187;21899;-54
2021/09/20 00:58:00;;;;;;;2.70;1.00;;;;;;;12.12;57.16;100186.61;117453;1184;23438;-54
2021/09/20 01:00:28;;;;;;;3.30;1.30;;;;;;;12.19;57.32;100188.73;117290;1185;21868;-54
2021/09/20 01:02:56;;;;;;;2.00;1.10;;;;;;;12.24;57.31;100183.19;117299;1185;23648;-54
2021/09/20 01:05:26;;;;;;;2.40;1.10;;;;;;;12.31;57.30;100182.49;117292;1185;23542;-54
2021/09/20 01:07:55;;;;;;;2.50;1.20;;;;;;;12.35;57.51;100190.17;117289;1186;23586;-55
2021/09/20 01:10:23;;;;;;;2.30;1.10;;;;;;;12.36;57.24;100189.08;117288;1185;21865;-54
2021/09/20 01:12:52;;;;;;;1.70;1.20;;;;;;;12.27;57.41;100188.20;117318;1185;23567;-55
2021/09/20 01:15:20;;;;;;;2.90;1.20;;;;;;;12.24;57.47;100186.52;117418;1183;23461;-54
2021/09/20 01:17:48;;;;;;;2.80;1.30;;;;;;;12.22;57.43;100189.75;117373;1186;21859;-54
2021/09/20 01:20:32;;;;;;;2.10;1.00;;;;;;;12.17;57.49;100193.19;117269;1186;23622;-54
2021/09/20 01:23:01;;;;;;;3.30;1.30;;;;;;;12.14;57.35;100193.41;117304;1183;23463;-55
2021/09/20 01:25:30;;;;;;;2.00;1.20;;;;;;;12.09;57.30;100192.65;117315;1186;23517;-54
2021/09/20 01:27:59;;;;;;;2.20;1.30;;;;;;;12.03;57.26;100189.61;117231;1186;21870;-54
2021/09/20 01:30:27;;;;;;;3.50;1.30;;;;;;;11.93;57.24;100192.25;117330;1186;21846;-54
2021/09/20 01:32:55;;;;;;;1.90;1.00;;;;;;;11.81;57.32;100199.17;117268;1183;23570;-55
2021/09/20 01:35:24;;;;;;;2.60;1.30;;;;;;;11.69;57.18;100198.88;117250;1183;23469;-54
2021/09/20 01:37:52;;;;;;;2.10;1.20;;;;;;;11.61;57.34;100201.34;117400;1185;22381;-55
2021/09/20 01:40:20;;;;;;;2.70;1.30;;;;;;;11.57;57.29;100198.23;117255;1186;23563;-54
2021/09/20 01:42:55;;;;;;;2.90;1.00;;;;;;;11.51;57.33;100194.31;117300;1189;23545;-54
2021/09/20 01:45:25;;;;;;;2.10;1.30;;;;;;;11.48;57.50;100189.98;117387;1187;24161;-54
2021/09/20 01:47:53;;;;;;;2.10;1.10;;;;;;;11.45;57.50;100196.71;117407;1185;22920;-54
2021/09/20 01:50:21;;;;;;;1.70;1.20;;;;;;;11.43;57.54;100199.73;117282;1185;22313;-54
2021/09/20 01:52:50;;;;;;;3.60;1.40;;;;;;;11.41;57.47;100201.88;117266;1183;23548;-54
2021/09/20 01:55:18;;;;;;;2.40;1.60;;;;;;;11.40;57.58;100214.73;117229;1186;23467;-54
2021/09/20 01:57:46;;;;;;;4.00;1.70;;;;;;;11.37;57.68;100219.88;117274;1186;21940;-54
2021/09/20 02:00:15;;;;;;;3.30;1.70;;;;;;;11.38;57.59;100213.54;117271;1186;23542;-54
2021/09/20 02:02:43;;;;;;;2.50;1.80;;;;;;;11.39;57.86;100212.11;117255;1186;21854;-54
2021/09/20 02:05:12;;;;;;;3.80;1.50;;;;;;;11.42;57.66;100217.15;117107;1187;24002;-54
2021/09/20 02:08:00;;;;;;;3.00;1.90;;;;;;;11.51;57.57;100219.80;117320;1189;21909;-54
2021/09/20 02:10:48;;;;;;;3.20;2.00;;;;;;;11.49;57.73;100220.71;117240;1186;22984;-54
2021/09/20 02:13:16;;;;;;;4.00;2.40;;;;;;;11.49;57.85;100214.59;117306;1184;21867;-54
2021/09/20 02:15:52;;;;;;;3.80;2.10;;;;;;;11.52;57.92;100206.42;117260;1183;23558;-54
2021/09/20 02:18:20;;;;;;;3.80;2.30;;;;;;;11.55;57.82;100207.24;117159;1186;23545;-54
2021/09/20 02:20:49;;;;;;;6.60;2.90;;;;;;;11.54;57.74;100214.64;117253;1186;22221;-54
2021/09/20 02:23:17;;;;;;;5.40;3.30;;;;;;;11.53;57.76;100213.08;117256;1187;21858;-54
2021/09/20 02:25:45;;;;;;;4.80;3.10;;;;;;;11.56;57.80;100217.23;117437;1186;22621;-54
2021/09/20 02:28:14;;;;;;;5.00;3.10;;;;;;;11.57;57.54;100206.68;117331;1185;23563;-54
2021/09/20 02:30:42;;;;;;;5.00;3.20;;;;;;;11.56;57.72;100206.35;117341;1185;23655;-54
2021/09/20 02:33:10;;;;;;;4.70;3.20;;;;;;;11.56;57.74;100205.64;117318;1188;21855;-54
2021/09/20 02:35:38;;;;;;;8.20;3.80;;;;;;;11.57;57.80;100204.40;117207;1186;22627;-54
2021/09/20 02:38:06;;;;;;;5.00;3.50;;;;;;;11.57;57.69;100203.69;117189;1186;22817;-54
2021/09/20 02:40:34;;;;;;;6.30;3.90;;;;;;;11.56;57.96;100203.52;117290;1187;21854;-54
2021/09/20 02:43:03;;;;;;;5.90;3.40;;;;;;;11.56;57.81;100206.53;117332;1186;21846;-54
2021/09/20 02:45:32;;;;;;;5.50;3.40;;;;;;;11.51;57.56;100215.05;117439;1186;21857;-54
2021/09/20 02:48:00;;;;;;;5.60;3.60;;;;;;;11.44;57.76;100210.43;117273;1186;23544;-54
2021/09/20 02:50:31;;;;;;;5.60;3.50;;;;;;;11.33;57.49;100211.52;117349;1186;23544;-54
2021/09/20 02:52:59;;;;;;;5.40;3.80;;;;;;;11.20;57.66;100206.30;117258;1184;21920;-54
2021/09/20 02:55:27;;;;;;;4.80;3.80;;;;;;;11.10;57.65;100212.42;117282;1185;21864;-54
2021/09/20 02:57:55;;;;;;;5.30;3.90;;;;;;;11.08;57.72;100216.33;117343;1189;23563;-54
2021/09/20 03:00:24;;;;;;;4.90;3.20;;;;;;;11.05;57.80;100214.98;117374;1183;23862;-54
2021/09/20 03:02:53;;;;;;;7.30;3.40;;;;;;;11.01;57.78;100218.39;117134;1183;22931;-54
2021/09/20 03:05:21;;;;;;;4.60;3.20;;;;;;;11.03;57.85;100217.14;117225;1188;22911;-54
2021/09/20 03:07:49;;;;;;;5.10;3.20;;;;;;;11.00;57.87;100223.33;117317;1186;22332;-54
2021/09/20 03:10:37;;;;;;;6.50;3.30;;;;;;;11.05;57.82;100221.47;117229;1187;22909;-54
2021/09/20 03:13:06;;;;;;;5.20;3.30;;;;;;;11.10;57.78;100222.97;117322;1185;23540;-54
2021/09/20 03:15:34;;;;;;;8.00;4.10;;;;;;;11.12;57.98;100219.61;117310;1185;23544;-54
2021/09/20 03:18:02;;;;;;;5.70;3.90;;;;;;;11.12;57.92;100218.19;117214;1184;22748;-54
2021/09/20 03:20:50;;;;;;;5.70;3.30;;;;;;;11.09;57.74;100219.31;117184;1185;23649;-54
2021/09/20 03:23:18;;;;;;;5.80;3.60;;;;;;;11.08;57.77;100219.50;117111;1186;21849;-60
2021/09/20 03:25:46;;;;;;;9.10;3.80;;;;;;;11.08;57.90;100220.73;117243;1186;21848;-54
2021/09/20 03:28:14;;;;;;;6.60;3.70;;;;;;;11.08;57.92;100215.45;117187;1183;21859;-54
2021/09/20 03:30:42;;;;;;;4.90;3.00;;;;;;;11.05;57.90;100217.42;117296;1185;23545;-54
2021/09/20 03:33:30;;;;;;;11.30;4.10;;;;;;;11.06;57.88;100221.64;117250;1189;21858;-54
2021/09/20 03:36:00;;;;;;;6.20;3.20;;;;;;;11.10;58.08;100226.30;117379;1185;23545;-54
2021/09/20 03:38:28;;;;;;;6.20;3.60;;;;;;;11.13;58.17;100230.47;117291;1182;22077;-54
2021/09/20 03:40:56;;;;;;;7.40;3.60;;;;;;;11.16;58.19;100237.63;117356;1185;21899;-54
2021/09/20 03:43:24;;;;;;;7.70;5.10;;;;;;;11.20;58.11;100243.02;117248;1186;23566;-54
2021/09/20 03:46:00;;;;;;;6.20;4.10;;;;;;;11.23;58.17;100241.91;117219;1182;23535;-54
2021/09/20 03:48:28;;;;;;;6.60;3.50;;;;;;;11.28;58.20;100238.10;117197;1183;22322;-54
2021/09/20 03:51:00;;;;;;;7.80;3.20;;;;;;;11.34;58.22;100233.46;117321;1185;22945;-54
2021/09/20 03:53:28;;;;;;;9.00;3.00;;;;;;;11.35;58.11;100237.30;117296;1186;23566;-54
2021/09/20 03:55:57;;;;;;;7.50;2.70;;;;;;;11.40;58.23;100237.04;117363;1185;23560;-54
2021/09/20 03:58:25;;;;;;;6.90;3.30;;;;;;;11.45;58.17;100240.64;117362;1185;23580;-54
2021/09/20 04:00:54;;;;;;;7.10;3.10;;;;;;;11.46;58.19;100243.96;117318;1183;21858;-54
2021/09/20 04:03:22;;;;;;;5.40;2.80;;;;;;;11.44;58.37;100247.68;117279;1186;23542;-54
2021/09/20 04:05:50;;;;;;;5.50;2.90;;;;;;;11.43;58.23;100251.55;117298;1183;22839;-54
2021/09/20 04:08:18;;;;;;;5.90;3.00;;;;;;;11.46;58.31;100251.52;117257;1186;23447;-54
2021/09/20 04:11:07;;;;;;;5.30;3.40;;;;;;;11.48;58.43;100246.04;117379;1185;22991;-54
2021/09/20 04:13:37;;;;;;;4.70;3.00;;;;;;;11.47;58.25;100248.34;117277;1185;22917;-55
2021/09/20 04:16:25;;;;;;;7.00;2.90;;;;;;;11.49;58.16;100249.17;117174;1186;21860;-54
2021/09/20 04:18:54;;;;;;;5.10;2.80;;;;;;;11.52;58.00;100250.35;117377;1181;23620;-54
2021/09/20 04:21:30;;;;;;;4.30;2.60;;;;;;;11.47;58.20;100253.78;117332;1184;23567;-54
2021/09/20 04:24:18;;;;;;;11.20;3.30;;;;;;;11.43;58.00;100253.14;117303;1186;21871;-54
2021/09/20 04:27:06;;;;;;;5.60;2.70;;;;;;;11.43;58.23;100255.27;117291;1189;21873;-54
2021/09/20 04:29:35;;;;;;;4.30;3.10;;;;;;;11.42;58.33;100252.11;117322;1185;23668;-54
2021/09/20 04:32:24;;;;;;;6.80;2.90;;;;;;;11.44;58.26;100255.94;117226;1189;22893;-54
2021/09/20 04:34:52;;;;;;;5.50;2.80;;;;;;;11.44;58.22;100258.92;117322;1186;21858;-54
2021/09/20 04:37:21;;;;;;;6.50;3.00;;;;;;;11.46;58.32;100260.13;117326;1187;21898;-54
2021/09/20 04:39:49;;;;;;;6.70;3.20;;;;;;;11.49;58.30;100258.31;117275;1186;21858;-55
2021/09/20 04:42:17;;;;;;;6.50;3.40;;;;;;;11.54;58.40;100264.38;117341;1185;21898;-55
2021/09/20 04:44:45;;;;;;;9.90;3.10;;;;;;;11.60;58.27;100265.48;117306;1183;21861;-54
2021/09/20 04:47:14;;;;;;;5.60;3.40;;;;;;;11.68;58.40;100263.59;117387;1185;23543;-54
2021/09/20 04:49:44;;;;;;;5.40;3.60;;;;;;;11.75;58.40;100270.15;117320;1185;23570;-54
2021/09/20 04:52:21;;;;;;;6.90;3.80;;;;;;;11.83;58.45;100272.27;117242;1186;23570;-54
2021/09/20 04:54:51;;;;;;;7.20;3.80;;;;;;;11.91;58.38;100269.49;117267;1188;23752;-54
2021/09/20 04:57:19;;;;;;;6.40;3.40;;;;;;;11.98;58.52;100268.46;117302;1180;21859;-54
2021/09/20 04:59:50;;;;;;;4.90;3.80;;;;;;;12.07;58.60;100268.15;117310;1182;21929;-54
2021/09/20 05:02:19;;;;;;;6.10;3.70;;;;;;;12.16;58.41;100265.52;117246;1183;23544;-55
2021/09/20 05:04:48;;;;;;;5.00;3.50;;;;;;;12.22;58.51;100269.59;117333;1185;21864;-54
2021/09/20 05:07:16;;;;;;;5.20;3.60;;;;;;;12.27;58.65;100271.09;117380;1180;23913;-54
2021/09/20 05:10:05;;;;;;;5.60;3.70;;;;;;;12.37;58.53;100271.91;117282;1186;21856;-55
2021/09/20 05:12:33;;;;;;;5.80;3.50;;;;;;;12.47;58.72;100273.11;117179;1185;21857;-54
2021/09/20 05:15:04;;;;;;;8.10;3.80;;;;;;;12.56;58.78;100276.79;117211;1186;23918;-54
2021/09/20 05:17:52;;;;;;;5.30;3.50;;;;;;;12.66;58.69;100286.60;117225;1185;22975;-54
2021/09/20 05:20:22;;;;;;;5.30;3.40;;;;;;;12.77;58.64;100288.66;117347;1186;23544;-54
2021/09/20 05:23:10;;;;;;;5.00;3.50;;;;;;;12.93;58.52;100291.97;117261;1189;21844;-55
2021/09/20 05:25:38;;;;;;;8.90;3.80;;;;;;;13.02;58.43;100289.83;117299;1185;21848;-54
2021/09/20 05:28:06;;;;;;;5.50;3.20;;;;;;;13.09;58.72;100290.18;117230;1184;23587;-54
2021/09/20 05:30:34;;;;;;;5.60;3.40;;;;;;;13.22;58.62;100286.36;117304;1182;23560;-55
2021/09/20 05:33:03;;;;;;;5.50;3.30;;;;;;;13.33;58.68;100282.73;117337;1186;21883;-54
2021/09/20 05:35:31;;;;;;;6.80;3.60;;;;;;;13.43;58.70;100281.80;117284;1185;21875;-55
2021/09/20 05:37:59;;;;;;;8.20;3.80;;;;;;;13.55;58.77;100283.27;117289;1188;21848;-54
2021/09/20 05:40:28;;;;;;;7.10;3.70;;;;;;;13.71;58.65;100286.72;117229;1186;23609;-55
2021/09/20 05:42:57;;;;;;;4.80;3.00;;;;;;;13.88;58.75;100286.11;117402;1183;23461;-55
2021/09/20 05:45:25;;;;;;;4.40;3.20;;;;;;;13.85;58.91;100281.77;117250;1185;21849;-55
2021/09/20 05:47:54;;;;;;;4.60;3.10;;;;;;;13.92;59.11;100276.81;117278;1186;23547;-56
2021/09/20 05:50:23;;;;;;;4.00;3.00;;;;;;;14.05;59.27;100277.88;117277;1186;23598;-55
2021/09/20 05:52:51;;;;;;;4.30;2.70;;;;;;;14.17;59.35;100280.34;117163;1186;23444;-55
2021/09/20 05:55:20;;;;;;;5.00;2.90;;;;;;;14.37;59.33;100282.95;117386;1185;23553;-55
2021/09/20 05:57:48;;;;;;;6.60;3.20;;;;;;;14.56;59.37;100281.85;117331;1185;21848;-55
2021/09/20 06:00:16;;;;;;;6.50;2.70;;;;;;;14.75;59.45;100277.59;117297;1187;21979;-54
2021/09/20 06:02:47;;;;;;;4.10;2.60;;;;;;;14.94;59.36;100273.13;117287;1187;21857;-55
2021/09/20 06:05:16;;;;;;;3.80;2.40;;;;;;;15.10;59.40;100272.96;117304;1185;23543;-54
2021/09/20 06:07:44;;;;;;;7.70;2.60;;;;;;;15.24;59.46;100273.22;117284;1184;21857;-55
2021/09/20 06:10:14;;;;;;;5.00;2.80;;;;;;;15.44;59.61;100273.61;117320;1183;23544;-54
2021/09/20 06:12:45;;;;;;;3.10;2.10;;;;;;;15.67;59.71;100275.64;117112;1185;21858;-56
2021/09/20 06:15:14;;;;;;;3.40;2.00;;;;;;;15.91;59.82;100276.77;117296;1186;21857;-55
2021/09/20 06:18:03;;;;;;;5.90;2.20;;;;;;;16.08;59.70;100275.61;117266;1186;22870;-55
2021/09/20 06:20:38;;;;;;;3.80;1.90;;;;;;;16.25;59.46;100276.09;117181;1186;23637;-55
2021/09/20 06:23:26;;;;;;;4.80;1.80;;;;;;;16.32;59.29;100281.64;117201;1184;21869;-55
2021/09/20 06:25:57;;;;;;;2.70;1.70;;;;;;;16.39;59.27;100285.79;117241;1185;24123;-55
2021/09/20 06:28:25;;;;;;;3.20;1.70;;;;;;;16.45;59.31;100284.84;117190;1185;21848;-61
2021/09/20 06:30:54;;;;;;;2.80;1.90;;;;;;;16.55;59.37;100284.30;117199;1182;21909;-61
2021/09/20 06:33:22;;;;;;;2.50;1.80;;;;;;;16.64;59.40;100287.36;117260;1185;22904;-60
2021/09/20 06:35:55;;;;;;;3.60;2.00;;;;;;;16.76;59.52;100287.94;117248;1186;23478;-60
2021/09/20 06:38:24;;;;;;;3.10;1.50;;;;;;;16.88;59.51;100291.17;117283;1185;23567;-60
2021/09/20 06:40:52;;;;;;;3.70;1.80;;;;;;;16.98;59.57;100296.67;117280;1185;22756;-60
2021/09/20 06:43:21;;;;;;;2.80;1.60;;;;;;;17.17;59.98;100293.96;117390;1186;23567;-60
2021/09/20 06:45:50;;;;;;;2.10;1.50;;;;;;;17.46;60.04;100295.60;117277;1186;23544;-62
2021/09/20 06:48:18;;;;;;;3.50;1.60;;;;;;;17.78;60.15;100292.27;117251;1185;23544;-60
2021/09/20 06:50:46;;;;;;;3.20;1.70;;;;;;;18.11;60.17;100292.27;117254;1188;21868;-60
2021/09/20 06:53:14;;;;;;;2.80;1.70;;;;;;;18.32;60.07;100291.86;117241;1186;21855;-60
2021/09/20 06:55:44;;;;;;;4.60;1.80;;;;;;;18.48;60.06;100293.80;117272;1186;23558;-60
2021/09/20 06:58:12;;;;;;;4.10;1.80;;;;;;;18.58;59.92;100286.56;117282;1186;21858;-60
2021/09/20 07:00:41;;;;;;;4.30;1.50;;;;;;;18.76;60.04;100285.18;117280;1186;23553;-60
2021/09/20 07:03:12;;;;;;;3.60;1.60;;;;;;;19.02;60.21;100283.81;117411;1185;21893;-60
2021/09/20 07:05:41;;;;;;;4.30;1.40;;;;;;;19.31;60.41;100283.65;117306;1185;23464;-61
2021/09/20 07:08:09;;;;;;;1.60;1.20;;;;;;;19.52;60.27;100281.30;117286;1182;22555;-60
2021/09/20 07:10:38;;;;;;;2.80;1.50;;;;;;;19.68;60.16;100282.48;117315;1186;23544;-61
2021/09/20 07:13:09;;;;;;;3.80;1.30;;;;;;;20.03;60.62;100277.65;117322;1186;23531;-60
2021/09/20 07:15:37;;;;;;;3.00;1.40;;;;;;;20.49;60.65;100274.65;117297;1185;21858;-61
2021/09/20 07:18:06;;;;;;;1.80;1.10;;;;;;;20.84;60.38;100268.26;117340;1186;23542;-61
2021/09/20 07:20:35;;;;;;;1.90;1.00;;;;;;;21.07;60.45;100264.65;117421;1185;22975;-61
2021/09/20 07:23:05;;;;;;;2.90;0.90;;;;;;;21.21;60.18;100265.95;117334;1186;23541;-61
2021/09/20 07:25:34;;;;;;;2.50;1.30;;;;;;;21.27;60.05;100266.30;117286;1189;23640;-62
2021/09/20 07:28:03;;;;;;;6.10;1.20;;;;;;;21.44;60.15;100264.97;117263;1186;23437;-61
2021/09/20 07:30:32;;;;;;;2.30;0.80;;;;;;;21.56;59.92;100259.95;117363;1185;21848;-62
2021/09/20 07:33:01;;;;;;;1.90;1.40;;;;;;;21.65;59.87;100265.50;117345;1185;21982;-62
2021/09/20 07:35:29;;;;;;;3.80;1.30;;;;;;;21.67;59.63;100270.79;117341;1185;21884;-62
2021/09/20 07:37:57;;;;;;;3.90;1.40;;;;;;;21.65;59.35;100272.31;117257;1189;21857;-61
2021/09/20 07:40:26;;;;;;;3.10;1.20;;;;;;;21.61;59.41;100273.60;117235;1188;21859;-62
2021/09/20 07:42:55;;;;;;;3.70;1.40;;;;;;;21.61;59.43;100274.50;117202;1186;23544;-62
2021/09/20 07:45:24;;;;;;;5.00;1.50;;;;;;;21.65;59.48;100273.02;117171;1186;22650;-62
2021/09/20 07:47:52;;;;;;;1.40;1.00;;;;;;;21.75;59.36;100277.48;117215;1185;21858;-62
2021/09/20 07:50:21;;;;;;;3.60;1.40;;;;;;;21.84;59.32;100277.78;117306;1184;21858;-62
2021/09/20 07:52:49;;;;;;;2.40;1.10;;;;;;;22.02;59.59;100283.31;117336;1186;24160;-61
2021/09/20 07:55:18;;;;;;;4.20;1.40;;;;;;;22.21;59.69;100278.73;117356;1182;24164;-61
2021/09/20 07:57:46;;;;;;;2.60;1.20;;;;;;;22.46;59.90;100276.10;117384;1185;22916;-62
2021/09/20 08:00:15;;;;;;;2.70;1.40;;;;;;;22.77;59.79;100276.64;117331;1186;23551;-61
2021/09/20 08:02:43;;;;;;;3.90;2.40;;;;;;;22.89;59.35;100275.67;117315;1185;21854;-61
2021/09/20 08:05:14;;;;;;;3.10;1.70;;;;;;;22.94;59.55;100271.45;117303;1182;23475;-61
2021/09/20 08:07:43;;;;;;;3.70;2.20;;;;;;;23.10;59.55;100269.69;117293;1185;23541;-60
2021/09/20 08:10:11;;;;;;;4.10;1.70;;;;;;;23.21;59.23;100266.79;117369;1185;23563;-60
2021/09/20 08:12:39;;;;;;;3.00;1.60;;;;;;;23.25;59.36;100259.54;117302;1185;21850;-61
2021/09/20 08:15:09;;;;;;;2.90;1.60;;;;;;;23.46;59.53;100265.13;117323;1185;22618;-61
2021/09/20 08:17:37;;;;;;;4.50;1.90;;;;;;;23.54;59.20;100264.41;117286;1185;22643;-61
2021/09/20 08:20:26;;;;;;;5.10;3.60;;;;;;;23.40;58.81;100261.83;117169;1186;23249;-61
2021/09/20 08:22:54;;;;;;;4.20;2.50;;;;;;;23.49;59.17;100261.36;117284;1185;23545;-60
2021/09/20 08:25:23;;;;;;;4.50;2.00;;;;;;;23.63;59.12;100258.61;117237;1184;21864;-61
2021/09/20 08:27:51;;;;;;;4.10;1.60;;;;;;;23.71;59.08;100260.05;117275;1185;21857;-61
2021/09/20 08:30:21;;;;;;;3.60;1.90;;;;;;;23.80;59.31;100260.13;117112;1185;21860;-61
2021/09/20 08:33:00;;;;;;;2.70;1.40;;;;;;;23.86;59.22;100260.41;117246;1186;22796;-61
2021/09/20 08:35:29;;;;;;;2.70;1.60;;;;;;;24.02;59.07;100258.45;117286;1185;23552;-62
2021/09/20 08:37:57;;;;;;;2.70;1.60;;;;;;;24.26;58.79;100253.35;117316;1185;21903;-61
2021/09/20 08:40:27;;;;;;;2.90;1.70;;;;;;;24.36;58.51;100259.83;117325;1185;23552;-60
2021/09/20 08:42:56;;;;;;;3.00;1.70;;;;;;;24.21;58.38;100259.95;117071;1186;21860;-60
2021/09/20 08:45:25;;;;;;;3.40;1.50;;;;;;;24.26;58.57;100256.96;117082;1183;21973;-61
2021/09/20 08:47:55;;;;;;;5.50;1.90;;;;;;;24.40;58.53;100261.45;117192;1182;22938;-60
2021/09/20 08:50:35;;;;;;;4.60;1.90;;;;;;;24.25;58.10;100261.11;117189;1186;21858;-61
2021/09/20 08:53:04;;;;;;;2.90;1.80;;;;;;;23.96;57.94;100256.89;117155;1186;21900;-60
2021/09/20 08:55:33;;;;;;;4.10;2.10;;;;;;;23.97;58.45;100261.66;117034;1187;21855;-60
2021/09/20 08:58:01;;;;;;;4.70;1.70;;;;;;;24.13;58.79;100265.02;117221;1185;21865;-60
2021/09/20 09:00:32;;;;;;;3.10;2.00;;;;;;;24.32;58.84;100267.64;117308;1185;23436;-61
2021/09/20 09:03:02;;;;;;;2.10;1.50;;;;;;;24.52;58.70;100263.13;117069;1187;23573;-60
2021/09/20 09:05:34;;;;;;;4.10;1.40;;;;;;;24.57;58.40;100261.55;117174;1182;23538;-61
2021/09/20 09:08:06;;;;;;;2.80;1.70;;;;;;;24.45;58.16;100259.52;117230;1184;23444;-60
2021/09/20 09:11:05;;;;;;;3.20;1.90;;;;;;;24.42;58.34;100258.66;117279;1187;23541;-60
2021/09/20 09:13:53;;;;;;;6.40;2.10;;;;;;;24.62;58.70;100251.84;117316;1185;23614;-60
2021/09/20 09:16:23;;;;;;;3.20;1.60;;;;;;;24.89;58.87;100253.09;117342;1186;21883;-60
2021/09/20 09:19:04;;;;;;;5.80;2.40;;;;;;;25.13;58.77;100250.06;117279;1182;23633;-60
2021/09/20 09:21:37;;;;;;;8.90;4.00;;;;;;;25.30;58.81;100250.42;117410;1185;22270;-61
2021/09/20 09:24:16;;;;;;;2.90;1.50;;;;;;;25.47;58.81;100250.56;117306;1186;21905;-61
2021/09/20 09:26:55;;;;;;;2.90;1.10;;;;;;;25.63;58.76;100250.42;117293;1180;22982;-61
2021/09/20 09:29:23;;;;;;;2.50;1.10;;;;;;;25.77;58.72;100249.90;117332;1186;23541;-60
2021/09/20 09:31:54;;;;;;;3.50;1.30;;;;;;;25.88;58.77;100251.88;117334;1180;21854;-60
2021/09/20 09:34:23;;;;;;;;;;;;;;;26.03;58.67;100245.14;117357;1182;23447;-61
2021/09/20 09:37:14;;;;;;;4.60;1.50;;;;;;;26.15;58.36;100242.09;117273;1182;23558;-61
2021/09/20 09:39:46;;;;;;;3.80;1.20;;;;;;;26.12;58.18;100239.96;117261;1186;23566;-61
2021/09/20 09:42:22;;;;;;;2.70;1.30;;;;;;;26.20;58.18;100240.97;117299;1185;23544;-62
2021/09/20 09:44:50;;;;;;;3.80;1.20;;;;;;;26.16;58.21;100240.56;117292;1184;22657;-60
2021/09/20 09:47:24;;;;;;;3.30;1.10;;;;;;;26.18;57.97;100240.94;117439;1185;21899;-61
2021/09/20 09:50:16;;;;;;;2.30;1.20;;;;;;;26.16;57.75;100241.11;117220;1188;21867;-61
2021/09/20 09:52:44;;;;;;;3.90;1.00;;;;;;;26.13;57.72;100247.44;117313;1185;21983;-62
2021/09/20 09:55:13;;;;;;;2.50;1.40;;;;;;;25.89;57.55;100249.17;117331;1185;23451;-62
2021/09/20 09:57:51;;;;;;;3.50;1.80;;;;;;;25.70;57.78;100245.27;117191;1178;23569;-61
2021/09/20 10:00:21;;;;;;;4.20;2.00;;;;;;;25.73;58.13;100244.78;117300;1186;23461;-60
2021/09/20 10:02:51;;;;;;;3.30;1.80;;;;;;;25.93;58.17;100246.31;117319;1185;21865;-60
2021/09/20 10:05:28;;;;;;;2.90;1.60;;;;;;;25.93;57.97;100246.46;117320;1189;22182;-60
2021/09/20 10:07:57;;;;;;;2.90;1.30;;;;;;;25.84;57.96;100245.91;117312;1185;23540;-60
2021/09/20 10:10:45;;;;;;;3.60;1.30;;;;;;;25.99;58.11;100238.30;117262;1186;21872;-60
2021/09/20 10:13:14;;;;;;;4.10;1.50;;;;;;;26.15;58.15;100230.77;117182;1185;23579;-60
2021/09/20 10:15:44;;;;;;;6.50;1.30;;;;;;;26.29;58.23;100231.59;117084;1186;22811;-62
2021/09/20 10:18:16;;;;;;;2.10;1.20;;;;;;;26.38;57.85;100231.64;117219;1182;23472;-61
2021/09/20 10:20:46;;;;;;;5.30;1.30;;;;;;;26.40;57.64;100230.57;117082;1184;23547;-61
2021/09/20 10:23:34;;;;;;;4.40;1.30;;;;;;;26.41;57.62;100228.83;117113;1186;21856;-61
2021/09/20 10:26:03;;;;;;;2.50;1.30;;;;;;;26.32;57.37;100223.28;117273;1186;23880;-60
2021/09/20 10:28:31;;;;;;;2.00;1.40;;;;;;;26.05;56.78;100223.58;117202;1188;21863;-60
2021/09/20 10:30:59;;;;;;;3.00;1.40;;;;;;;25.87;57.03;100226.67;116960;1189;21849;-60
2021/09/20 10:33:27;;;;;;;3.90;1.30;;;;;;;25.92;57.23;100227.90;117003;1186;22632;-61
2021/09/20 10:35:55;;;;;;;2.60;1.40;;;;;;;25.98;57.53;100226.83;117362;1186;21860;-60
2021/09/20 10:38:29;;;;;;;4.00;1.40;;;;;;;26.10;57.74;100221.58;117367;1184;24217;-60
2021/09/20 10:41:21;;;;;;;9.00;1.40;;;;;;;26.29;57.98;100225.29;117312;1186;22759;-60
2021/09/20 10:44:04;;;;;;;2.00;1.10;;;;;;;26.56;58.05;100214.64;117300;1186;23556;-62
2021/09/20 10:46:38;;;;;;;2.30;1.10;;;;;;;26.67;57.92;100221.85;117307;1183;21909;-60
2021/09/20 10:49:18;;;;;;;2.50;1.10;;;;;;;26.68;57.60;100224.87;117209;1184;23579;-61
2021/09/20 10:52:06;;;;;;;1.50;1.20;;;;;;;26.68;57.40;100222.19;117325;1186;21857;-60
2021/09/20 10:54:36;;;;;;;5.70;1.20;;;;;;;26.64;57.21;100221.58;117341;1178;22896;-60
2021/09/20 10:57:24;;;;;;;1.90;1.10;;;;;;;26.59;57.32;100229.02;117286;1186;21965;-61
2021/09/20 11:00:19;;;;;;;4.00;1.50;;;;;;;26.34;56.95;100232.67;117294;1184;23547;-61
2021/09/20 11:02:48;;;;;;;2.60;1.60;;;;;;;26.06;56.81;100238.11;117204;1186;23566;-61
2021/09/20 11:05:25;;;;;;;10.20;2.00;;;;;;;25.90;56.75;100233.08;117290;1184;21873;-60
2021/09/20 11:08:03;;;;;;;4.10;1.50;;;;;;;25.77;57.17;100229.92;117285;1185;23543;-61
2021/09/20 11:10:51;;;;;;;3.00;1.50;;;;;;;25.66;57.17;100234.53;117217;1182;21860;-60
2021/09/20 11:13:19;;;;;;;2.80;1.60;;;;;;;25.69;57.27;100240.25;117280;1182;22627;-60
2021/09/20 11:15:48;;;;;;;2.90;1.50;;;;;;;25.69;57.09;100235.02;117289;1182;23543;-60
2021/09/20 11:18:37;;;;;;;2.70;1.60;;;;;;;25.62;57.07;100228.22;117340;1182;22167;-64
2021/09/20 11:21:06;;;;;;;2.20;1.40;;;;;;;25.70;57.15;100229.05;117414;1183;21857;-66
2021/09/20 11:23:36;;;;;;;2.80;1.60;;;;;;;25.80;57.02;100229.54;117275;1182;21868;-63
2021/09/20 11:26:15;;;;;;;5.40;2.00;;;;;;;25.72;56.60;100229.80;117404;1184;24606;-62
2021/09/20 11:28:49;;;;;;;2.90;1.40;;;;;;;25.50;56.52;100233.97;117362;1182;24225;-64
2021/09/20 11:31:25;;;;;;;4.10;1.80;;;;;;;25.32;56.31;100231.35;117370;1182;23518;-64
2021/09/20 11:33:53;;;;;;;3.40;1.90;;;;;;;24.95;56.02;100227.38;117211;1186;24219;-62
2021/09/20 11:36:28;;;;;;;5.00;1.50;;;;;;;24.63;56.32;100224.36;117278;1189;21860;-64
2021/09/20 11:39:12;;;;;;;2.90;1.70;;;;;;;24.46;56.39;100227.88;117143;1186;22920;-66